Westview Chinook — VG3278 — position and weather

sailwx.info

Track history (hours):
 
Tides and Currents Weather Stations Pressure Air Temp Water Temp Dewpoint Dewpoint Depression Visibility Wind Speed Wind Dir Waves Ship Positions

Westview Chinook

Last reported at 2017-Mar-18 21:15 UTC. Time now 2017-Mar-29 15:23 UTC.
Position N 49°14' W 122°46'.
Warning: this ship's position is 10 days out of date.

Length 15 m.

Type: Tug. MMSI: 316005622.

Date/timePositionNaut miles runAvg speedWind from/ knotsBaromVisibWave heightAir tempDewpointWater temp
2017-Mar-18 21:15N 49°14' W 122°46'0 0.0
2017-Mar-18 20:33N 49°14' W 122°46'0 0.0
2017-Mar-18 19:33N 49°14' W 122°46'0 0.0
2017-Mar-18 18:33N 49°14' W 122°46'0 0.0
2017-Mar-18 17:33N 49°14' W 122°46'0 0.0
2017-Mar-18 16:33N 49°14' W 122°46'0 0.0
2017-Mar-18 15:33N 49°14' W 122°46'0 0.0
2017-Mar-18 14:34N 49°14' W 122°46'0 0.0
2017-Mar-18 13:33N 49°14' W 122°46'0 0.0
2017-Mar-18 12:33N 49°14' W 122°46'0 0.0
2017-Mar-18 11:33N 49°14' W 122°46'0 0.0
2017-Mar-18 10:33N 49°14' W 122°46'0 0.0
2017-Mar-18 09:33N 49°14' W 122°46'0 0.0
2017-Mar-18 08:33N 49°14' W 122°46'0 0.0
2017-Mar-18 07:33N 49°14' W 122°46'0 0.0
2017-Mar-18 06:33N 49°14' W 122°46'0 0.0
2017-Mar-18 05:33N 49°14' W 122°46'0 0.0
2017-Mar-18 04:33N 49°14' W 122°46'0 0.0
2017-Mar-18 03:33N 49°14' W 122°46'0 0.0
2017-Mar-18 02:33N 49°14' W 122°46'0 0.0
2017-Mar-18 01:33N 49°14' W 122°46'0 0.0
2017-Mar-18 00:33N 49°14' W 122°46'0 0.0
2017-Mar-17 23:33N 49°14' W 122°46'0 0.0
2017-Mar-17 22:33N 49°14' W 122°46'0 0.0
2017-Mar-17 21:33N 49°14' W 122°46'0 0.0
2017-Mar-17 20:33N 49°14' W 122°46'0 0.2
2017-Mar-17 19:33N 49°14' W 122°46'6 6.4
2017-Mar-17 18:33N 49°11' W 122°55'2 1.7
2017-Mar-17 17:33N 49°11' W 122°58'0 0.0
2017-Mar-17 16:33N 49°11' W 122°58'0 0.0
2017-Mar-17 15:33N 49°11' W 122°58'4 3.9
2017-Mar-17 14:33N 49°09' W 123°02'3 2.7
2017-Mar-17 13:33N 49°07' W 123°05'5 4.6
2017-Mar-17 12:33N 49°07' W 123°12'4 4.2
2017-Mar-17 11:33N 49°06' W 123°18'4 4.3
2017-Mar-17 10:33N 49°07' W 123°25'5 5.3
2017-Mar-17 09:33N 49°09' W 123°32'6 5.9
2017-Mar-17 08:33N 49°11' W 123°41'6 6.1
2017-Mar-17 07:33N 49°13' W 123°50'4 4.3
2017-Mar-17 06:33N 49°09' W 123°53'6 5.7
2017-Mar-17 05:33N 49°13' W 123°46'10 9.7
2017-Mar-17 04:34N 49°10' W 123°32'10 9.8
2017-Mar-17 03:33N 49°06' W 123°18'9 8.8
2017-Mar-17 02:34N 49°07' W 123°05'9 9.3
2017-Mar-17 01:34N 49°13' W 122°53'5 4.9
2017-Mar-17 00:34N 49°14' W 122°46'0 0.0
2017-Mar-16 23:33N 49°14' W 122°46'0 0.0
2017-Mar-16 22:33N 49°14' W 122°46'0 0.0
2017-Mar-16 21:33N 49°14' W 122°46'0 0.0
2017-Mar-16 20:33N 49°14' W 122°46'0 0.0
2017-Mar-16 19:33N 49°14' W 122°46'0 0.0
2017-Mar-16 18:33N 49°14' W 122°46'0 0.0
2017-Mar-16 17:33N 49°14' W 122°46'0 0.0
2017-Mar-16 16:33N 49°14' W 122°46'0 0.0
2017-Mar-16 15:33N 49°14' W 122°46'0 0.0
2017-Mar-16 14:33N 49°14' W 122°46'0 0.0
2017-Mar-16 13:32N 49°14' W 122°46'0 0.0
2017-Mar-16 12:33N 49°14' W 122°46'0 0.0
2017-Mar-16 11:33N 49°14' W 122°46'0 0.0
2017-Mar-16 10:34N 49°14' W 122°46'0 0.0
2017-Mar-16 09:33N 49°14' W 122°46'0 0.0
2017-Mar-16 08:33N 49°14' W 122°46'0 0.0
2017-Mar-16 07:32N 49°14' W 122°46'0 0.0
2017-Mar-16 06:34N 49°14' W 122°46'0 0.0
2017-Mar-16 05:33N 49°14' W 122°46'0 0.0
2017-Mar-16 04:33N 49°14' W 122°46'0 0.0
2017-Mar-16 03:33N 49°14' W 122°46'0 0.0
2017-Mar-16 02:32N 49°14' W 122°46'0 0.0
2017-Mar-16 01:31N 49°14' W 122°46'0 0.0
2017-Mar-16 00:33N 49°14' W 122°46'0 0.0
2017-Mar-15 23:33N 49°14' W 122°46'0 0.0
2017-Mar-15 22:34N 49°14' W 122°46'0 0.0
2017-Mar-15 21:33N 49°14' W 122°46'0 0.0
2017-Mar-15 20:33N 49°14' W 122°46'0 0.0
2017-Mar-15 19:33N 49°14' W 122°46'0 0.0
2017-Mar-15 18:34N 49°14' W 122°46'0 0.0
2017-Mar-15 17:33N 49°14' W 122°46'0 0.0
2017-Mar-15 16:33N 49°14' W 122°46'0 0.0
2017-Mar-15 15:34N 49°14' W 122°46'0 0.0
2017-Mar-15 14:33N 49°14' W 122°46'6 5.7
2017-Mar-15 13:33N 49°12' W 122°54'9 8.7
2017-Mar-15 12:34N 49°07' W 123°05'8 8.0
2017-Mar-15 11:33N 49°07' W 123°17'6 6.0
2017-Mar-15 10:33N 49°08' W 123°26'10 9.5
2017-Mar-15 09:33N 49°11' W 123°40'8 8.4
2017-Mar-15 08:33N 49°11' W 123°53'2 1.6
2017-Mar-15 07:33N 49°12' W 123°52'8 7.6
2017-Mar-15 06:34N 49°12' W 123°40'8 7.7
2017-Mar-15 05:33N 49°09' W 123°29'7 7.4
2017-Mar-15 04:33N 49°06' W 123°19'7 7.3
2017-Mar-15 03:33N 49°07' W 123°08'5 5.0
2017-Mar-15 02:33N 49°09' W 123°01'8 8.2
2017-Mar-15 01:33N 49°13' W 122°50'3 3.1
2017-Mar-15 00:33N 49°14' W 122°46'0 0.0
2017-Mar-14 23:33N 49°14' W 122°46'0 0.0
2017-Mar-14 22:33N 49°14' W 122°46'0 0.0
2017-Mar-14 21:33N 49°14' W 122°46'3 3.5
2017-Mar-14 20:33N 49°13' W 122°51'5 4.6
2017-Mar-14 19:33N 49°11' W 122°58'2 1.8
2017-Mar-14 18:33N 49°11' W 122°55'1 1.0
2017-Mar-14 17:33N 49°12' W 122°55'0 0.0
2017-Mar-14 16:33N 49°12' W 122°55'0 0.0
2017-Mar-14 15:33N 49°12' W 122°55'0 0.0
2017-Mar-14 14:33N 49°12' W 122°55'3 3.4
2017-Mar-14 13:33N 49°09' W 122°58'4 4.2
2017-Mar-14 12:33N 49°08' W 123°04'5 4.7
2017-Mar-14 11:33N 49°07' W 123°11'4 3.9
2017-Mar-14 10:33N 49°07' W 123°17'5 4.7
2017-Mar-14 09:33N 49°07' W 123°24'6 5.9
2017-Mar-14 08:33N 49°09' W 123°33'6 5.8
2017-Mar-14 07:33N 49°11' W 123°41'6 6.2
2017-Mar-14 06:33N 49°12' W 123°50'4 3.9
2017-Mar-14 05:33N 49°09' W 123°53'7 7.2
2017-Mar-14 04:33N 49°11' W 123°43'10 9.9
2017-Mar-14 03:34N 49°08' W 123°28'9 9.1
2017-Mar-14 02:33N 49°08' W 123°14'9 8.7
2017-Mar-14 01:33N 49°09' W 123°01'6 5.5
2017-Mar-14 00:31N 49°12' W 122°54'1 1.1
2017-Mar-13 23:33N 49°12' W 122°55'5 4.7
2017-Mar-13 22:33N 49°12' W 123°02'4 4.0
2017-Mar-13 21:33N 49°12' W 123°08'0 0.0
2017-Mar-13 20:33N 49°12' W 123°08'0 0.0
2017-Mar-13 19:33N 49°12' W 123°08'0 0.0
2017-Mar-13 18:33N 49°12' W 123°08'0 0.0
2017-Mar-13 17:33N 49°12' W 123°08'0 0.0
2017-Mar-13 16:33N 49°12' W 123°08'5 4.5
2017-Mar-13 15:33N 49°12' W 123°01'5 5.4
2017-Mar-13 14:33N 49°13' W 122°53'0 0.0
2017-Mar-13 13:33N 49°13' W 122°53'5 4.8
2017-Mar-13 12:33N 49°14' W 122°46'0 0.0
2017-Mar-13 11:33N 49°14' W 122°46'0 0.0
2017-Mar-13 10:33N 49°14' W 122°46'0 0.0
2017-Mar-13 09:34N 49°14' W 122°46'0 0.0
2017-Mar-13 08:33N 49°14' W 122°46'0 0.0
2017-Mar-13 07:34N 49°14' W 122°46'0 0.0
2017-Mar-13 06:33N 49°14' W 122°46'0 0.0
2017-Mar-13 05:33N 49°14' W 122°46'0 0.0
2017-Mar-13 04:33N 49°14' W 122°46'0 0.0
2017-Mar-13 03:34N 49°14' W 122°46'0 0.0
2017-Mar-13 02:33N 49°14' W 122°46'0 0.0
2017-Mar-13 01:32N 49°14' W 122°46'0 0.0
2017-Mar-13 00:34N 49°14' W 122°46'0 0.0
2017-Mar-12 23:33N 49°14' W 122°46'0 0.0
2017-Mar-12 22:33N 49°14' W 122°46'0 0.0
2017-Mar-12 21:33N 49°14' W 122°46'0 0.0
2017-Mar-12 20:33N 49°14' W 122°46'0 0.0
2017-Mar-12 19:33N 49°14' W 122°46'0 0.0
2017-Mar-12 18:33N 49°14' W 122°46'0 0.0
2017-Mar-12 17:33N 49°14' W 122°46'0 0.0
2017-Mar-12 16:33N 49°14' W 122°46'6 5.4
2017-Mar-12 15:32N 49°12' W 122°54'9 8.9
2017-Mar-12 14:33N 49°07' W 123°05'3 3.5
2017-Mar-12 13:33N 49°09' W 123°00'8 7.7
2017-Mar-12 12:33N 49°13' W 122°50'3 3.0
2017-Mar-12 11:33N 49°14' W 122°46'0 0.0
2017-Mar-12 10:33N 49°14' W 122°46'0 0.0
2017-Mar-12 09:33N 49°14' W 122°46'0 0.0
2017-Mar-12 08:33N 49°14' W 122°46'0 0.0
2017-Mar-12 07:33N 49°14' W 122°46'0 0.0
2017-Mar-12 06:33N 49°14' W 122°46'0 0.0
2017-Mar-12 05:33N 49°14' W 122°46'0 0.0
2017-Mar-12 04:33N 49°14' W 122°46'0 0.0
2017-Mar-12 03:33N 49°14' W 122°46'3 3.2
2017-Mar-12 02:33N 49°13' W 122°51'9 9.3
2017-Mar-12 01:33N 49°08' W 123°03'8 7.9
2017-Mar-12 00:33N 49°08' W 123°15'8 8.4
2017-Mar-11 23:33N 49°08' W 123°28'9 8.6
2017-Mar-11 22:32N 49°10' W 123°41'8 8.2
2017-Mar-11 21:33N 49°12' W 123°53'0 0.1
2017-Mar-11 20:34N 49°12' W 123°53'8 7.5
2017-Mar-11 19:33N 49°12' W 123°41'8 8.3
2017-Mar-11 18:33N 49°10' W 123°29'7 6.5
2017-Mar-11 17:33N 49°07' W 123°20'8 8.5
2017-Mar-11 16:33N 49°07' W 123°07'6 6.0
2017-Mar-11 15:33N 49°09' W 122°59'7 7.2
2017-Mar-11 14:33N 49°13' W 122°50'3 2.8
2017-Mar-11 13:33N 49°14' W 122°46'0 0.0
2017-Mar-11 12:33N 49°14' W 122°46'0 0.0
2017-Mar-11 11:33N 49°14' W 122°46'0 0.0
2017-Mar-11 10:33N 49°14' W 122°46'0 0.0
2017-Mar-11 09:33N 49°14' W 122°46'0 0.0
2017-Mar-11 08:33N 49°14' W 122°46'0 0.0
2017-Mar-11 07:33N 49°14' W 122°46'0 0.0
2017-Mar-11 06:33N 49°14' W 122°46'0 0.0
2017-Mar-11 05:33N 49°14' W 122°46'0 0.0
2017-Mar-11 04:33N 49°14' W 122°46'0 0.0
2017-Mar-11 03:33N 49°14' W 122°46'5 4.9
2017-Mar-11 02:33N 49°13' W 122°53'7 7.1
2017-Mar-11 01:33N 49°12' W 123°04'2 1.9
2017-Mar-11 00:33N 49°12' W 123°07'1 1.4
2017-Mar-10 23:32N 49°12' W 123°09'0 0.0
2017-Mar-10 22:33N 49°12' W 123°09'0 0.0
2017-Mar-10 21:33N 49°12' W 123°09'1 0.9
2017-Mar-10 20:33N 49°12' W 123°08'1 1.2
2017-Mar-10 19:33N 49°12' W 123°06'7 6.8
2017-Mar-10 18:33N 49°12' W 122°56'1 1.0
2017-Mar-10 17:33N 49°12' W 122°54'4 4.0
2017-Mar-10 16:33N 49°13' W 122°49'3 2.9
2017-Mar-10 15:33N 49°13' W 122°53'7 7.0
2017-Mar-10 14:33N 49°09' W 123°02'0 0.4
2017-Mar-10 13:33N 49°09' W 123°01'3 2.9
2017-Mar-10 12:33N 49°07' W 123°05'5 4.9
2017-Mar-10 11:33N 49°07' W 123°12'6 6.2
2017-Mar-10 10:33N 49°06' W 123°22'4 4.2
2017-Mar-10 09:33N 49°08' W 123°27'3 2.9
2017-Mar-10 08:33N 49°07' W 123°23'9 9.3
2017-Mar-10 07:33N 49°07' W 123°09'1010.3
2017-Mar-10 06:33N 49°11' W 122°55'0 0.4
2017-Mar-10 05:33N 49°12' W 122°55'1 0.8
2017-Mar-10 04:33N 49°11' W 122°55'4 4.3
2017-Mar-10 03:33N 49°13' W 122°49'1 0.5
2017-Mar-10 02:33N 49°13' W 122°50'6 6.4
2017-Mar-10 01:33N 49°11' W 122°59'4 3.9
2017-Mar-10 00:33N 49°12' W 123°05'3 3.2
2017-Mar-09 23:33N 49°11' W 123°00'6 6.0
2017-Mar-09 22:33N 49°13' W 122°51'1 0.9
2017-Mar-09 21:33N 49°13' W 122°50'0 0.3
2017-Mar-09 20:33N 49°13' W 122°50'0 0.4
2017-Mar-09 19:33N 49°13' W 122°50'3 3.3
2017-Mar-09 18:33N 49°12' W 122°54'0 0.3
2017-Mar-09 17:33N 49°12' W 122°54'3 2.8
2017-Mar-09 16:33N 49°13' W 122°50'0 0.0
2017-Mar-09 15:33N 49°13' W 122°50'0 0.2
2017-Mar-09 14:33N 49°13' W 122°50'2 2.4
2017-Mar-09 13:33N 49°14' W 122°46'2 2.5
2017-Mar-09 12:33N 49°13' W 122°50'0 0.0
2017-Mar-09 11:33N 49°13' W 122°50'0 0.0
2017-Mar-09 10:33N 49°13' W 122°50'0 0.0
2017-Mar-09 09:33N 49°13' W 122°50'0 0.1
2017-Mar-09 08:33N 49°13' W 122°50'4 3.7
2017-Mar-09 07:33N 49°12' W 122°55'2 1.9
2017-Mar-09 06:33N 49°13' W 122°53'8 8.2
2017-Mar-09 05:33N 49°12' W 122°40'6 5.1
2017-Mar-09 04:21N 49°10' W 122°31'5 6.6
2017-Mar-09 03:33N 49°12' W 122°39'7 7.3
2017-Mar-09 02:33N 49°13' W 122°50'3 3.4
2017-Mar-09 01:33N 49°12' W 122°55'1 0.6
2017-Mar-09 00:33N 49°11' W 122°55'0 0.2
2017-Mar-08 23:33N 49°11' W 122°55'4 3.9
2017-Mar-08 22:34N 49°13' W 122°50'0 0.1
2017-Mar-08 21:33N 49°13' W 122°50'  
Track history (hours):
 
Tides and Currents Weather Stations Pressure Air Temp Water Temp Dewpoint Dewpoint Depression Visibility Wind Speed Wind Dir Waves Ship Positions

Westview Chinook

Last reported at 2017-Mar-18 21:15 UTC. Time now 2017-Mar-29 15:23 UTC.
Position N 49°14' W 122°46'.
Warning: this ship's position is 10 days out of date.

Length 15 m.

Type: Tug. MMSI: 316005622.

Date/timePositionNaut miles runAvg speedWind from/ knotsBaromVisibWave heightAir tempDewpointWater temp
2017-Mar-18 21:15N 49°14' W 122°46'0 0.0
2017-Mar-18 20:33N 49°14' W 122°46'0 0.0
2017-Mar-18 19:33N 49°14' W 122°46'0 0.0
2017-Mar-18 18:33N 49°14' W 122°46'0 0.0
2017-Mar-18 17:33N 49°14' W 122°46'0 0.0
2017-Mar-18 16:33N 49°14' W 122°46'0 0.0
2017-Mar-18 15:33N 49°14' W 122°46'0 0.0
2017-Mar-18 14:34N 49°14' W 122°46'0 0.0
2017-Mar-18 13:33N 49°14' W 122°46'0 0.0
2017-Mar-18 12:33N 49°14' W 122°46'0 0.0
2017-Mar-18 11:33N 49°14' W 122°46'0 0.0
2017-Mar-18 10:33N 49°14' W 122°46'0 0.0
2017-Mar-18 09:33N 49°14' W 122°46'0 0.0
2017-Mar-18 08:33N 49°14' W 122°46'0 0.0
2017-Mar-18 07:33N 49°14' W 122°46'0 0.0
2017-Mar-18 06:33N 49°14' W 122°46'0 0.0
2017-Mar-18 05:33N 49°14' W 122°46'0 0.0
2017-Mar-18 04:33N 49°14' W 122°46'0 0.0
2017-Mar-18 03:33N 49°14' W 122°46'0 0.0
2017-Mar-18 02:33N 49°14' W 122°46'0 0.0
2017-Mar-18 01:33N 49°14' W 122°46'0 0.0
2017-Mar-18 00:33N 49°14' W 122°46'0 0.0
2017-Mar-17 23:33N 49°14' W 122°46'0 0.0
2017-Mar-17 22:33N 49°14' W 122°46'0 0.0
2017-Mar-17 21:33N 49°14' W 122°46'0 0.0
2017-Mar-17 20:33N 49°14' W 122°46'0 0.2
2017-Mar-17 19:33N 49°14' W 122°46'6 6.4
2017-Mar-17 18:33N 49°11' W 122°55'2 1.7
2017-Mar-17 17:33N 49°11' W 122°58'0 0.0
2017-Mar-17 16:33N 49°11' W 122°58'0 0.0
2017-Mar-17 15:33N 49°11' W 122°58'4 3.9
2017-Mar-17 14:33N 49°09' W 123°02'3 2.7
2017-Mar-17 13:33N 49°07' W 123°05'5 4.6
2017-Mar-17 12:33N 49°07' W 123°12'4 4.2
2017-Mar-17 11:33N 49°06' W 123°18'4 4.3
2017-Mar-17 10:33N 49°07' W 123°25'5 5.3
2017-Mar-17 09:33N 49°09' W 123°32'6 5.9
2017-Mar-17 08:33N 49°11' W 123°41'6 6.1
2017-Mar-17 07:33N 49°13' W 123°50'4 4.3
2017-Mar-17 06:33N 49°09' W 123°53'6 5.7
2017-Mar-17 05:33N 49°13' W 123°46'10 9.7
2017-Mar-17 04:34N 49°10' W 123°32'10 9.8
2017-Mar-17 03:33N 49°06' W 123°18'9 8.8
2017-Mar-17 02:34N 49°07' W 123°05'9 9.3
2017-Mar-17 01:34N 49°13' W 122°53'5 4.9
2017-Mar-17 00:34N 49°14' W 122°46'0 0.0
2017-Mar-16 23:33N 49°14' W 122°46'0 0.0
2017-Mar-16 22:33N 49°14' W 122°46'0 0.0
2017-Mar-16 21:33N 49°14' W 122°46'0 0.0
2017-Mar-16 20:33N 49°14' W 122°46'0 0.0
2017-Mar-16 19:33N 49°14' W 122°46'0 0.0
2017-Mar-16 18:33N 49°14' W 122°46'0 0.0
2017-Mar-16 17:33N 49°14' W 122°46'0 0.0
2017-Mar-16 16:33N 49°14' W 122°46'0 0.0
2017-Mar-16 15:33N 49°14' W 122°46'0 0.0
2017-Mar-16 14:33N 49°14' W 122°46'0 0.0
2017-Mar-16 13:32N 49°14' W 122°46'0 0.0
2017-Mar-16 12:33N 49°14' W 122°46'0 0.0
2017-Mar-16 11:33N 49°14' W 122°46'0 0.0
2017-Mar-16 10:34N 49°14' W 122°46'0 0.0
2017-Mar-16 09:33N 49°14' W 122°46'0 0.0
2017-Mar-16 08:33N 49°14' W 122°46'0 0.0
2017-Mar-16 07:32N 49°14' W 122°46'0 0.0
2017-Mar-16 06:34N 49°14' W 122°46'0 0.0
2017-Mar-16 05:33N 49°14' W 122°46'0 0.0
2017-Mar-16 04:33N 49°14' W 122°46'0 0.0
2017-Mar-16 03:33N 49°14' W 122°46'0 0.0
2017-Mar-16 02:32N 49°14' W 122°46'0 0.0
2017-Mar-16 01:31N 49°14' W 122°46'0 0.0
2017-Mar-16 00:33N 49°14' W 122°46'0 0.0
2017-Mar-15 23:33N 49°14' W 122°46'0 0.0
2017-Mar-15 22:34N 49°14' W 122°46'0 0.0
2017-Mar-15 21:33N 49°14' W 122°46'0 0.0
2017-Mar-15 20:33N 49°14' W 122°46'0 0.0
2017-Mar-15 19:33N 49°14' W 122°46'0 0.0
2017-Mar-15 18:34N 49°14' W 122°46'0 0.0
2017-Mar-15 17:33N 49°14' W 122°46'0 0.0
2017-Mar-15 16:33N 49°14' W 122°46'0 0.0
2017-Mar-15 15:34N 49°14' W 122°46'0 0.0
2017-Mar-15 14:33N 49°14' W 122°46'6 5.7
2017-Mar-15 13:33N 49°12' W 122°54'9 8.7
2017-Mar-15 12:34N 49°07' W 123°05'8 8.0
2017-Mar-15 11:33N 49°07' W 123°17'6 6.0
2017-Mar-15 10:33N 49°08' W 123°26'10 9.5
2017-Mar-15 09:33N 49°11' W 123°40'8 8.4
2017-Mar-15 08:33N 49°11' W 123°53'2 1.6
2017-Mar-15 07:33N 49°12' W 123°52'8 7.6
2017-Mar-15 06:34N 49°12' W 123°40'8 7.7
2017-Mar-15 05:33N 49°09' W 123°29'7 7.4
2017-Mar-15 04:33N 49°06' W 123°19'7 7.3
2017-Mar-15 03:33N 49°07' W 123°08'5 5.0
2017-Mar-15 02:33N 49°09' W 123°01'8 8.2
2017-Mar-15 01:33N 49°13' W 122°50'3 3.1
2017-Mar-15 00:33N 49°14' W 122°46'0 0.0
2017-Mar-14 23:33N 49°14' W 122°46'0 0.0
2017-Mar-14 22:33N 49°14' W 122°46'0 0.0
2017-Mar-14 21:33N 49°14' W 122°46'3 3.5
2017-Mar-14 20:33N 49°13' W 122°51'5 4.6
2017-Mar-14 19:33N 49°11' W 122°58'2 1.8
2017-Mar-14 18:33N 49°11' W 122°55'1 1.0
2017-Mar-14 17:33N 49°12' W 122°55'0 0.0
2017-Mar-14 16:33N 49°12' W 122°55'0 0.0
2017-Mar-14 15:33N 49°12' W 122°55'0 0.0
2017-Mar-14 14:33N 49°12' W 122°55'3 3.4
2017-Mar-14 13:33N 49°09' W 122°58'4 4.2
2017-Mar-14 12:33N 49°08' W 123°04'5 4.7
2017-Mar-14 11:33N 49°07' W 123°11'4 3.9
2017-Mar-14 10:33N 49°07' W 123°17'5 4.7
2017-Mar-14 09:33N 49°07' W 123°24'6 5.9
2017-Mar-14 08:33N 49°09' W 123°33'6 5.8
2017-Mar-14 07:33N 49°11' W 123°41'6 6.2
2017-Mar-14 06:33N 49°12' W 123°50'4 3.9
2017-Mar-14 05:33N 49°09' W 123°53'7 7.2
2017-Mar-14 04:33N 49°11' W 123°43'10 9.9
2017-Mar-14 03:34N 49°08' W 123°28'9 9.1
2017-Mar-14 02:33N 49°08' W 123°14'9 8.7
2017-Mar-14 01:33N 49°09' W 123°01'6 5.5
2017-Mar-14 00:31N 49°12' W 122°54'1 1.1
2017-Mar-13 23:33N 49°12' W 122°55'5 4.7
2017-Mar-13 22:33N 49°12' W 123°02'4 4.0
2017-Mar-13 21:33N 49°12' W 123°08'0 0.0
2017-Mar-13 20:33N 49°12' W 123°08'0 0.0
2017-Mar-13 19:33N 49°12' W 123°08'0 0.0
2017-Mar-13 18:33N 49°12' W 123°08'0 0.0
2017-Mar-13 17:33N 49°12' W 123°08'0 0.0
2017-Mar-13 16:33N 49°12' W 123°08'5 4.5
2017-Mar-13 15:33N 49°12' W 123°01'5 5.4
2017-Mar-13 14:33N 49°13' W 122°53'0 0.0
2017-Mar-13 13:33N 49°13' W 122°53'5 4.8
2017-Mar-13 12:33N 49°14' W 122°46'0 0.0
2017-Mar-13 11:33N 49°14' W 122°46'0 0.0
2017-Mar-13 10:33N 49°14' W 122°46'0 0.0
2017-Mar-13 09:34N 49°14' W 122°46'0 0.0
2017-Mar-13 08:33N 49°14' W 122°46'0 0.0
2017-Mar-13 07:34N 49°14' W 122°46'0 0.0
2017-Mar-13 06:33N 49°14' W 122°46'0 0.0
2017-Mar-13 05:33N 49°14' W 122°46'0 0.0
2017-Mar-13 04:33N 49°14' W 122°46'0 0.0
2017-Mar-13 03:34N 49°14' W 122°46'0 0.0
2017-Mar-13 02:33N 49°14' W 122°46'0 0.0
2017-Mar-13 01:32N 49°14' W 122°46'0 0.0
2017-Mar-13 00:34N 49°14' W 122°46'0 0.0
2017-Mar-12 23:33N 49°14' W 122°46'0 0.0
2017-Mar-12 22:33N 49°14' W 122°46'0 0.0
2017-Mar-12 21:33N 49°14' W 122°46'0 0.0
2017-Mar-12 20:33N 49°14' W 122°46'0 0.0
2017-Mar-12 19:33N 49°14' W 122°46'0 0.0
2017-Mar-12 18:33N 49°14' W 122°46'0 0.0
2017-Mar-12 17:33N 49°14' W 122°46'0 0.0
2017-Mar-12 16:33N 49°14' W 122°46'6 5.4
2017-Mar-12 15:32N 49°12' W 122°54'9 8.9
2017-Mar-12 14:33N 49°07' W 123°05'3 3.5
2017-Mar-12 13:33N 49°09' W 123°00'8 7.7
2017-Mar-12 12:33N 49°13' W 122°50'3 3.0
2017-Mar-12 11:33N 49°14' W 122°46'0 0.0
2017-Mar-12 10:33N 49°14' W 122°46'0 0.0
2017-Mar-12 09:33N 49°14' W 122°46'0 0.0
2017-Mar-12 08:33N 49°14' W 122°46'0 0.0
2017-Mar-12 07:33N 49°14' W 122°46'0 0.0
2017-Mar-12 06:33N 49°14' W 122°46'0 0.0
2017-Mar-12 05:33N 49°14' W 122°46'0 0.0
2017-Mar-12 04:33N 49°14' W 122°46'0 0.0
2017-Mar-12 03:33N 49°14' W 122°46'3 3.2
2017-Mar-12 02:33N 49°13' W 122°51'9 9.3
2017-Mar-12 01:33N 49°08' W 123°03'8 7.9
2017-Mar-12 00:33N 49°08' W 123°15'8 8.4
2017-Mar-11 23:33N 49°08' W 123°28'9 8.6
2017-Mar-11 22:32N 49°10' W 123°41'8 8.2
2017-Mar-11 21:33N 49°12' W 123°53'0 0.1
2017-Mar-11 20:34N 49°12' W 123°53'8 7.5
2017-Mar-11 19:33N 49°12' W 123°41'8 8.3
2017-Mar-11 18:33N 49°10' W 123°29'7 6.5
2017-Mar-11 17:33N 49°07' W 123°20'8 8.5
2017-Mar-11 16:33N 49°07' W 123°07'6 6.0
2017-Mar-11 15:33N 49°09' W 122°59'7 7.2
2017-Mar-11 14:33N 49°13' W 122°50'3 2.8
2017-Mar-11 13:33N 49°14' W 122°46'0 0.0
2017-Mar-11 12:33N 49°14' W 122°46'0 0.0
2017-Mar-11 11:33N 49°14' W 122°46'0 0.0
2017-Mar-11 10:33N 49°14' W 122°46'0 0.0
2017-Mar-11 09:33N 49°14' W 122°46'0 0.0
2017-Mar-11 08:33N 49°14' W 122°46'0 0.0
2017-Mar-11 07:33N 49°14' W 122°46'0 0.0
2017-Mar-11 06:33N 49°14' W 122°46'0 0.0
2017-Mar-11 05:33N 49°14' W 122°46'0 0.0
2017-Mar-11 04:33N 49°14' W 122°46'0 0.0
2017-Mar-11 03:33N 49°14' W 122°46'5 4.9
2017-Mar-11 02:33N 49°13' W 122°53'7 7.1
2017-Mar-11 01:33N 49°12' W 123°04'2 1.9
2017-Mar-11 00:33N 49°12' W 123°07'1 1.4
2017-Mar-10 23:32N 49°12' W 123°09'0 0.0
2017-Mar-10 22:33N 49°12' W 123°09'0 0.0
2017-Mar-10 21:33N 49°12' W 123°09'1 0.9
2017-Mar-10 20:33N 49°12' W 123°08'1 1.2
2017-Mar-10 19:33N 49°12' W 123°06'7 6.8
2017-Mar-10 18:33N 49°12' W 122°56'1 1.0
2017-Mar-10 17:33N 49°12' W 122°54'4 4.0
2017-Mar-10 16:33N 49°13' W 122°49'3 2.9
2017-Mar-10 15:33N 49°13' W 122°53'7 7.0
2017-Mar-10 14:33N 49°09' W 123°02'0 0.4
2017-Mar-10 13:33N 49°09' W 123°01'3 2.9
2017-Mar-10 12:33N 49°07' W 123°05'5 4.9
2017-Mar-10 11:33N 49°07' W 123°12'6 6.2
2017-Mar-10 10:33N 49°06' W 123°22'4 4.2
2017-Mar-10 09:33N 49°08' W 123°27'3 2.9
2017-Mar-10 08:33N 49°07' W 123°23'9 9.3
2017-Mar-10 07:33N 49°07' W 123°09'1010.3
2017-Mar-10 06:33N 49°11' W 122°55'0 0.4
2017-Mar-10 05:33N 49°12' W 122°55'1 0.8
2017-Mar-10 04:33N 49°11' W 122°55'4 4.3
2017-Mar-10 03:33N 49°13' W 122°49'1 0.5
2017-Mar-10 02:33N 49°13' W 122°50'6 6.4
2017-Mar-10 01:33N 49°11' W 122°59'4 3.9
2017-Mar-10 00:33N 49°12' W 123°05'3 3.2
2017-Mar-09 23:33N 49°11' W 123°00'6 6.0
2017-Mar-09 22:33N 49°13' W 122°51'1 0.9
2017-Mar-09 21:33N 49°13' W 122°50'0 0.3
2017-Mar-09 20:33N 49°13' W 122°50'0 0.4
2017-Mar-09 19:33N 49°13' W 122°50'3 3.3
2017-Mar-09 18:33N 49°12' W 122°54'0 0.3
2017-Mar-09 17:33N 49°12' W 122°54'3 2.8
2017-Mar-09 16:33N 49°13' W 122°50'0 0.0
2017-Mar-09 15:33N 49°13' W 122°50'0 0.2
2017-Mar-09 14:33N 49°13' W 122°50'2 2.4
2017-Mar-09 13:33N 49°14' W 122°46'2 2.5
2017-Mar-09 12:33N 49°13' W 122°50'0 0.0
2017-Mar-09 11:33N 49°13' W 122°50'0 0.0
2017-Mar-09 10:33N 49°13' W 122°50'0 0.0
2017-Mar-09 09:33N 49°13' W 122°50'0 0.1
2017-Mar-09 08:33N 49°13' W 122°50'4 3.7
2017-Mar-09 07:33N 49°12' W 122°55'2 1.9
2017-Mar-09 06:33N 49°13' W 122°53'8 8.2
2017-Mar-09 05:33N 49°12' W 122°40'6 5.1
2017-Mar-09 04:21N 49°10' W 122°31'5 6.6
2017-Mar-09 03:33N 49°12' W 122°39'7 7.3
2017-Mar-09 02:33N 49°13' W 122°50'3 3.4
2017-Mar-09 01:33N 49°12' W 122°55'1 0.6
2017-Mar-09 00:33N 49°11' W 122°55'0 0.2
2017-Mar-08 23:33N 49°11' W 122°55'4 3.9
2017-Mar-08 22:34N 49°13' W 122°50'0 0.1
2017-Mar-08 21:33N 49°13' W 122°50'  

Dump ship's entire track history